KSAA

Shively Field Airport

Saratoga, Wyoming, USA
METAR KSAA 170315Z AUTO 14006KT 10SM CLR 01/M03 A3042 RMK AO2
Observed Flight Rules
Oct-17 @ 03:15 UTC (13 minutes ago) Visual Flight Rules
Wind Visibility Clouds
140° at 6 knots 10 miles
  • Clear skies
Temperatures Readings
Current 1°C / 34°F
Dewpoint -3°C / 27°F
Humidity 75%
Altimeter 30.42" Hg
Pressure 1030 hPa
Elevation 2138
METAR KSAA 170315Z AUTO 14006KT 10SM CLR 01/M03 A3042 RMK AO2
Observed Flight Rules
Oct-17 @ 03:15 UTC
(13 minutes ago)
VFR
Wind Visibility
140° at 6 knots 10 miles
Clouds
  • Clear skies
Temperature Dewpoint
1°C / 34°F -3°C / 27°F
Humidity Altimeter Pressure
75% 30.42" Hg 1030 hPa